sensor_id;sensor_type;location;lat;lon;timestamp;P1;durP1;ratioP1;P2;durP2;ratioP2
5147;SDS011;2592;48.140;7.614;2023-08-17T00:00:24;2.50;;;1.60;;
5147;SDS011;2592;48.140;7.614;2023-08-17T00:02:51;3.90;;;2.20;;
5147;SDS011;2592;48.140;7.614;2023-08-17T00:05:18;2.87;;;2.00;;
5147;SDS011;2592;48.140;7.614;2023-08-17T00:07:44;2.73;;;1.90;;
5147;SDS011;2592;48.140;7.614;2023-08-17T00:10:11;2.70;;;1.90;;
5147;SDS011;2592;48.140;7.614;2023-08-17T00:12:37;4.57;;;1.90;;
5147;SDS011;2592;48.140;7.614;2023-08-17T00:15:04;4.47;;;1.90;;
5147;SDS011;2592;48.140;7.614;2023-08-17T00:17:31;4.13;;;2.07;;
5147;SDS011;2592;48.140;7.614;2023-08-17T00:19:59;4.60;;;1.90;;
5147;SDS011;2592;48.140;7.614;2023-08-17T00:22:25;5.40;;;2.30;;
5147;SDS011;2592;48.140;7.614;2023-08-17T00:24:52;4.37;;;2.13;;
5147;SDS011;2592;48.140;7.614;2023-08-17T00:27:18;4.57;;;2.13;;
5147;SDS011;2592;48.140;7.614;2023-08-17T00:29:45;7.53;;;2.53;;
5147;SDS011;2592;48.140;7.614;2023-08-17T00:32:11;7.23;;;2.10;;
5147;SDS011;2592;48.140;7.614;2023-08-17T00:34:37;3.17;;;2.10;;
5147;SDS011;2592;48.140;7.614;2023-08-17T00:37:05;5.20;;;2.40;;
5147;SDS011;2592;48.140;7.614;2023-08-17T00:39:32;3.67;;;2.30;;
5147;SDS011;2592;48.140;7.614;2023-08-17T00:41:58;3.13;;;2.13;;
5147;SDS011;2592;48.140;7.614;2023-08-17T00:44:24;10.60;;;2.33;;
5147;SDS011;2592;48.140;7.614;2023-08-17T00:46:51;4.33;;;2.37;;
5147;SDS011;2592;48.140;7.614;2023-08-17T00:49:17;2.83;;;2.20;;
5147;SDS011;2592;48.140;7.614;2023-08-17T00:51:44;2.70;;;2.00;;
5147;SDS011;2592;48.140;7.614;2023-08-17T00:54:12;3.93;;;2.27;;
5147;SDS011;2592;48.140;7.614;2023-08-17T00:56:39;4.70;;;2.53;;
5147;SDS011;2592;48.140;7.614;2023-08-17T00:59:05;3.60;;;2.10;;
5147;SDS011;2592;48.140;7.614;2023-08-17T01:01:35;4.17;;;2.00;;
5147;SDS011;2592;48.140;7.614;2023-08-17T01:04:02;4.47;;;2.27;;
5147;SDS011;2592;48.140;7.614;2023-08-17T01:06:28;4.53;;;1.80;;
5147;SDS011;2592;48.140;7.614;2023-08-17T01:08:55;3.60;;;1.80;;
5147;SDS011;2592;48.140;7.614;2023-08-17T01:11:25;5.40;;;2.27;;
5147;SDS011;2592;48.140;7.614;2023-08-17T01:13:55;3.23;;;2.40;;
5147;SDS011;2592;48.140;7.614;2023-08-17T01:16:24;2.73;;;1.97;;
5147;SDS011;2592;48.140;7.614;2023-08-17T01:18:51;2.90;;;2.13;;
5147;SDS011;2592;48.140;7.614;2023-08-17T01:21:18;4.70;;;2.47;;
5147;SDS011;2592;48.140;7.614;2023-08-17T01:23:48;2.20;;;1.90;;
5147;SDS011;2592;48.140;7.614;2023-08-17T01:26:15;6.90;;;2.20;;
5147;SDS011;2592;48.140;7.614;2023-08-17T01:28:42;4.00;;;2.60;;
5147;SDS011;2592;48.140;7.614;2023-08-17T01:31:11;8.10;;;2.90;;
5147;SDS011;2592;48.140;7.614;2023-08-17T01:33:39;3.03;;;2.30;;
5147;SDS011;2592;48.140;7.614;2023-08-17T01:36:10;4.27;;;2.60;;
5147;SDS011;2592;48.140;7.614;2023-08-17T01:38:37;4.30;;;2.80;;
5147;SDS011;2592;48.140;7.614;2023-08-17T01:41:07;5.50;;;2.37;;
5147;SDS011;2592;48.140;7.614;2023-08-17T01:43:38;5.33;;;2.20;;
5147;SDS011;2592;48.140;7.614;2023-08-17T01:46:04;3.93;;;2.53;;
5147;SDS011;2592;48.140;7.614;2023-08-17T01:48:31;5.47;;;2.93;;
5147;SDS011;2592;48.140;7.614;2023-08-17T01:50:57;4.63;;;2.87;;
5147;SDS011;2592;48.140;7.614;2023-08-17T01:53:24;3.20;;;2.43;;
5147;SDS011;2592;48.140;7.614;2023-08-17T01:55:50;4.10;;;2.70;;
5147;SDS011;2592;48.140;7.614;2023-08-17T01:58:18;4.70;;;2.40;;
5147;SDS011;2592;48.140;7.614;2023-08-17T02:00:44;4.17;;;2.83;;
5147;SDS011;2592;48.140;7.614;2023-08-17T02:03:11;4.20;;;2.57;;
5147;SDS011;2592;48.140;7.614;2023-08-17T02:05:37;5.00;;;3.17;;
5147;SDS011;2592;48.140;7.614;2023-08-17T02:08:03;3.17;;;1.97;;
5147;SDS011;2592;48.140;7.614;2023-08-17T02:10:30;3.30;;;2.80;;
5147;SDS011;2592;48.140;7.614;2023-08-17T02:12:56;3.70;;;3.23;;
5147;SDS011;2592;48.140;7.614;2023-08-17T02:15:24;4.33;;;3.40;;
5147;SDS011;2592;48.140;7.614;2023-08-17T02:17:50;5.17;;;2.80;;
5147;SDS011;2592;48.140;7.614;2023-08-17T02:20:17;3.17;;;2.80;;
5147;SDS011;2592;48.140;7.614;2023-08-17T02:22:43;4.30;;;3.43;;
5147;SDS011;2592;48.140;7.614;2023-08-17T02:25:10;4.17;;;2.90;;
5147;SDS011;2592;48.140;7.614;2023-08-17T02:27:36;3.93;;;3.20;;
5147;SDS011;2592;48.140;7.614;2023-08-17T02:30:03;4.20;;;3.20;;
5147;SDS011;2592;48.140;7.614;2023-08-17T02:32:31;7.50;;;3.47;;
5147;SDS011;2592;48.140;7.614;2023-08-17T02:34:57;4.57;;;3.27;;
5147;SDS011;2592;48.140;7.614;2023-08-17T02:37:24;4.70;;;3.30;;
5147;SDS011;2592;48.140;7.614;2023-08-17T02:39:51;4.50;;;3.63;;
5147;SDS011;2592;48.140;7.614;2023-08-17T02:42:17;4.97;;;3.40;;
5147;SDS011;2592;48.140;7.614;2023-08-17T02:44:44;5.90;;;3.37;;
5147;SDS011;2592;48.140;7.614;2023-08-17T02:47:10;6.43;;;3.20;;
5147;SDS011;2592;48.140;7.614;2023-08-17T02:49:38;5.43;;;3.27;;
5147;SDS011;2592;48.140;7.614;2023-08-17T02:52:05;10.00;;;3.40;;
5147;SDS011;2592;48.140;7.614;2023-08-17T02:54:31;6.40;;;3.00;;
5147;SDS011;2592;48.140;7.614;2023-08-17T02:56:57;5.50;;;3.40;;
5147;SDS011;2592;48.140;7.614;2023-08-17T02:59:24;6.40;;;3.27;;
5147;SDS011;2592;48.140;7.614;2023-08-17T03:01:50;4.77;;;4.17;;
5147;SDS011;2592;48.140;7.614;2023-08-17T03:04:17;6.33;;;3.87;;
5147;SDS011;2592;48.140;7.614;2023-08-17T03:06:45;3.67;;;3.10;;
5147;SDS011;2592;48.140;7.614;2023-08-17T03:09:11;4.23;;;3.47;;
5147;SDS011;2592;48.140;7.614;2023-08-17T03:11:37;4.83;;;2.90;;
5147;SDS011;2592;48.140;7.614;2023-08-17T03:14:04;5.20;;;3.47;;
5147;SDS011;2592;48.140;7.614;2023-08-17T03:16:30;4.73;;;3.27;;
5147;SDS011;2592;48.140;7.614;2023-08-17T03:18:57;7.87;;;3.93;;
5147;SDS011;2592;48.140;7.614;2023-08-17T03:21:23;5.33;;;3.33;;
5147;SDS011;2592;48.140;7.614;2023-08-17T03:23:51;5.73;;;3.60;;
5147;SDS011;2592;48.140;7.614;2023-08-17T03:26:18;5.37;;;3.57;;
5147;SDS011;2592;48.140;7.614;2023-08-17T03:28:44;4.43;;;3.13;;
5147;SDS011;2592;48.140;7.614;2023-08-17T03:31:11;7.00;;;3.50;;
5147;SDS011;2592;48.140;7.614;2023-08-17T03:33:37;5.80;;;3.40;;
5147;SDS011;2592;48.140;7.614;2023-08-17T03:36:05;4.90;;;3.07;;
5147;SDS011;2592;48.140;7.614;2023-08-17T03:38:32;6.30;;;3.47;;
5147;SDS011;2592;48.140;7.614;2023-08-17T03:41:00;4.50;;;3.50;;
5147;SDS011;2592;48.140;7.614;2023-08-17T03:43:26;4.47;;;3.00;;
5147;SDS011;2592;48.140;7.614;2023-08-17T03:45:53;8.33;;;3.17;;
5147;SDS011;2592;48.140;7.614;2023-08-17T03:48:19;3.87;;;2.90;;
5147;SDS011;2592;48.140;7.614;2023-08-17T03:50:50;3.07;;;2.77;;
5147;SDS011;2592;48.140;7.614;2023-08-17T03:53:16;4.90;;;2.73;;
5147;SDS011;2592;48.140;7.614;2023-08-17T03:55:45;3.50;;;2.93;;
5147;SDS011;2592;48.140;7.614;2023-08-17T03:58:13;5.93;;;3.30;;
5147;SDS011;2592;48.140;7.614;2023-08-17T04:00:39;7.30;;;3.17;;
5147;SDS011;2592;48.140;7.614;2023-08-17T04:03:07;5.07;;;3.17;;
5147;SDS011;2592;48.140;7.614;2023-08-17T04:05:34;7.93;;;3.20;;
5147;SDS011;2592;48.140;7.614;2023-08-17T04:08:00;6.73;;;3.17;;
5147;SDS011;2592;48.140;7.614;2023-08-17T04:10:27;5.63;;;2.80;;
5147;SDS011;2592;48.140;7.614;2023-08-17T04:12:54;3.97;;;2.77;;
5147;SDS011;2592;48.140;7.614;2023-08-17T04:15:21;4.33;;;3.23;;
5147;SDS011;2592;48.140;7.614;2023-08-17T04:17:48;5.63;;;3.07;;
5147;SDS011;2592;48.140;7.614;2023-08-17T04:20:14;4.23;;;3.30;;
5147;SDS011;2592;48.140;7.614;2023-08-17T04:22:41;5.40;;;3.70;;
5147;SDS011;2592;48.140;7.614;2023-08-17T04:25:07;5.37;;;3.30;;
5147;SDS011;2592;48.140;7.614;2023-08-17T04:27:34;5.13;;;3.20;;
5147;SDS011;2592;48.140;7.614;2023-08-17T04:30:00;5.83;;;3.47;;
5147;SDS011;2592;48.140;7.614;2023-08-17T04:32:28;3.73;;;3.00;;
5147;SDS011;2592;48.140;7.614;2023-08-17T04:34:55;5.03;;;3.33;;
5147;SDS011;2592;48.140;7.614;2023-08-17T04:37:21;3.50;;;3.20;;
5147;SDS011;2592;48.140;7.614;2023-08-17T04:39:47;6.20;;;3.30;;
5147;SDS011;2592;48.140;7.614;2023-08-17T04:42:14;5.33;;;3.83;;
5147;SDS011;2592;48.140;7.614;2023-08-17T04:44:40;4.60;;;3.13;;
5147;SDS011;2592;48.140;7.614;2023-08-17T04:47:07;5.13;;;3.40;;
5147;SDS011;2592;48.140;7.614;2023-08-17T04:49:35;5.07;;;3.57;;
5147;SDS011;2592;48.140;7.614;2023-08-17T04:52:01;11.30;;;3.40;;
5147;SDS011;2592;48.140;7.614;2023-08-17T04:54:28;3.97;;;3.33;;
5147;SDS011;2592;48.140;7.614;2023-08-17T04:56:55;4.50;;;3.43;;
5147;SDS011;2592;48.140;7.614;2023-08-17T04:59:21;6.10;;;3.87;;
5147;SDS011;2592;48.140;7.614;2023-08-17T05:01:47;4.47;;;3.93;;
5147;SDS011;2592;48.140;7.614;2023-08-17T05:04:14;4.47;;;3.47;;
5147;SDS011;2592;48.140;7.614;2023-08-17T05:06:42;15.33;;;4.63;;
5147;SDS011;2592;48.140;7.614;2023-08-17T05:09:09;5.00;;;4.00;;
5147;SDS011;2592;48.140;7.614;2023-08-17T05:11:35;5.23;;;4.20;;
5147;SDS011;2592;48.140;7.614;2023-08-17T05:14:01;5.37;;;3.83;;
5147;SDS011;2592;48.140;7.614;2023-08-17T05:16:28;5.50;;;3.93;;
5147;SDS011;2592;48.140;7.614;2023-08-17T05:18:54;5.40;;;3.37;;
5147;SDS011;2592;48.140;7.614;2023-08-17T05:21:22;5.60;;;3.80;;
5147;SDS011;2592;48.140;7.614;2023-08-17T05:23:50;5.17;;;3.03;;
5147;SDS011;2592;48.140;7.614;2023-08-17T05:26:17;14.57;;;4.07;;
5147;SDS011;2592;48.140;7.614;2023-08-17T05:28:43;8.73;;;4.97;;
5147;SDS011;2592;48.140;7.614;2023-08-17T05:31:10;5.30;;;4.50;;
5147;SDS011;2592;48.140;7.614;2023-08-17T05:33:36;4.97;;;3.93;;
5147;SDS011;2592;48.140;7.614;2023-08-17T05:36:06;5.63;;;4.00;;
5147;SDS011;2592;48.140;7.614;2023-08-17T05:38:32;7.10;;;4.23;;
5147;SDS011;2592;48.140;7.614;2023-08-17T05:41:00;10.20;;;5.57;;
5147;SDS011;2592;48.140;7.614;2023-08-17T05:43:27;8.93;;;4.53;;
5147;SDS011;2592;48.140;7.614;2023-08-17T05:45:53;5.60;;;4.10;;
5147;SDS011;2592;48.140;7.614;2023-08-17T05:48:20;6.43;;;4.23;;
5147;SDS011;2592;48.140;7.614;2023-08-17T05:50:46;5.50;;;3.70;;
5147;SDS011;2592;48.140;7.614;2023-08-17T05:53:13;5.40;;;4.37;;
5147;SDS011;2592;48.140;7.614;2023-08-17T05:55:39;5.60;;;3.97;;
5147;SDS011;2592;48.140;7.614;2023-08-17T05:58:07;8.80;;;4.43;;
5147;SDS011;2592;48.140;7.614;2023-08-17T06:00:33;5.80;;;4.93;;
5147;SDS011;2592;48.140;7.614;2023-08-17T06:03:00;5.67;;;4.90;;
5147;SDS011;2592;48.140;7.614;2023-08-17T06:05:27;7.10;;;5.40;;
5147;SDS011;2592;48.140;7.614;2023-08-17T06:07:54;8.77;;;5.40;;
5147;SDS011;2592;48.140;7.614;2023-08-17T06:10:20;10.07;;;5.27;;
5147;SDS011;2592;48.140;7.614;2023-08-17T06:12:50;6.83;;;4.60;;
5147;SDS011;2592;48.140;7.614;2023-08-17T06:15:17;11.60;;;5.23;;
5147;SDS011;2592;48.140;7.614;2023-08-17T06:17:44;13.53;;;6.47;;
5147;SDS011;2592;48.140;7.614;2023-08-17T06:20:11;10.90;;;6.63;;
5147;SDS011;2592;48.140;7.614;2023-08-17T06:22:38;9.50;;;6.33;;
5147;SDS011;2592;48.140;7.614;2023-08-17T06:25:05;10.60;;;6.90;;
5147;SDS011;2592;48.140;7.614;2023-08-17T06:27:32;9.87;;;7.00;;
5147;SDS011;2592;48.140;7.614;2023-08-17T06:29:59;10.77;;;7.00;;
5147;SDS011;2592;48.140;7.614;2023-08-17T06:32:29;10.53;;;6.77;;
5147;SDS011;2592;48.140;7.614;2023-08-17T06:34:56;10.63;;;6.20;;
5147;SDS011;2592;48.140;7.614;2023-08-17T06:37:22;15.10;;;7.60;;
5147;SDS011;2592;48.140;7.614;2023-08-17T06:39:48;9.60;;;7.27;;
5147;SDS011;2592;48.140;7.614;2023-08-17T06:42:15;13.37;;;9.07;;
5147;SDS011;2592;48.140;7.614;2023-08-17T06:44:41;11.07;;;7.20;;
5147;SDS011;2592;48.140;7.614;2023-08-17T06:47:08;10.50;;;7.70;;
5147;SDS011;2592;48.140;7.614;2023-08-17T06:49:35;10.47;;;7.87;;
5147;SDS011;2592;48.140;7.614;2023-08-17T06:52:02;12.83;;;8.50;;
5147;SDS011;2592;48.140;7.614;2023-08-17T06:54:28;13.50;;;8.47;;
5147;SDS011;2592;48.140;7.614;2023-08-17T06:56:57;13.13;;;7.90;;
5147;SDS011;2592;48.140;7.614;2023-08-17T06:59:23;11.73;;;7.50;;
5147;SDS011;2592;48.140;7.614;2023-08-17T07:01:50;13.20;;;6.50;;
5147;SDS011;2592;48.140;7.614;2023-08-17T07:04:16;15.97;;;7.43;;
5147;SDS011;2592;48.140;7.614;2023-08-17T07:06:44;13.30;;;7.40;;
5147;SDS011;2592;48.140;7.614;2023-08-17T07:09:10;9.90;;;6.70;;
5147;SDS011;2592;48.140;7.614;2023-08-17T07:11:37;12.73;;;7.50;;
5147;SDS011;2592;48.140;7.614;2023-08-17T07:14:04;11.37;;;7.17;;
5147;SDS011;2592;48.140;7.614;2023-08-17T07:16:31;8.20;;;5.63;;
5147;SDS011;2592;48.140;7.614;2023-08-17T07:18:57;9.73;;;5.43;;
5147;SDS011;2592;48.140;7.614;2023-08-17T07:21:24;9.63;;;5.90;;
5147;SDS011;2592;48.140;7.614;2023-08-17T07:23:53;11.73;;;5.60;;
5147;SDS011;2592;48.140;7.614;2023-08-17T07:26:20;10.53;;;6.10;;
5147;SDS011;2592;48.140;7.614;2023-08-17T07:28:48;10.97;;;6.20;;
5147;SDS011;2592;48.140;7.614;2023-08-17T07:31:14;9.23;;;6.17;;
5147;SDS011;2592;48.140;7.614;2023-08-17T07:33:41;9.67;;;6.57;;
5147;SDS011;2592;48.140;7.614;2023-08-17T07:36:07;7.10;;;5.30;;
5147;SDS011;2592;48.140;7.614;2023-08-17T07:38:34;9.10;;;5.10;;
5147;SDS011;2592;48.140;7.614;2023-08-17T07:41:02;14.40;;;6.80;;
5147;SDS011;2592;48.140;7.614;2023-08-17T07:43:28;11.47;;;5.43;;
5147;SDS011;2592;48.140;7.614;2023-08-17T07:45:55;7.70;;;4.90;;
5147;SDS011;2592;48.140;7.614;2023-08-17T07:48:21;8.17;;;4.80;;
5147;SDS011;2592;48.140;7.614;2023-08-17T07:50:48;8.30;;;4.70;;
5147;SDS011;2592;48.140;7.614;2023-08-17T07:53:14;10.63;;;5.03;;
5147;SDS011;2592;48.140;7.614;2023-08-17T07:55:41;7.27;;;4.30;;
5147;SDS011;2592;48.140;7.614;2023-08-17T07:58:08;7.27;;;4.13;;
5147;SDS011;2592;48.140;7.614;2023-08-17T08:00:35;7.87;;;4.50;;
5147;SDS011;2592;48.140;7.614;2023-08-17T08:03:01;8.43;;;4.70;;
5147;SDS011;2592;48.140;7.614;2023-08-17T08:05:28;9.30;;;3.93;;
5147;SDS011;2592;48.140;7.614;2023-08-17T08:07:54;5.40;;;4.20;;
5147;SDS011;2592;48.140;7.614;2023-08-17T08:10:21;6.80;;;4.27;;
5147;SDS011;2592;48.140;7.614;2023-08-17T08:12:47;8.93;;;4.10;;
5147;SDS011;2592;48.140;7.614;2023-08-17T08:15:15;8.03;;;4.20;;
5147;SDS011;2592;48.140;7.614;2023-08-17T08:17:41;6.17;;;4.33;;
5147;SDS011;2592;48.140;7.614;2023-08-17T08:20:08;6.90;;;4.10;;
5147;SDS011;2592;48.140;7.614;2023-08-17T08:22:34;7.10;;;4.03;;
5147;SDS011;2592;48.140;7.614;2023-08-17T08:25:01;7.70;;;3.80;;
5147;SDS011;2592;48.140;7.614;2023-08-17T08:27:27;5.70;;;3.70;;
5147;SDS011;2592;48.140;7.614;2023-08-17T08:29:54;9.53;;;4.10;;
5147;SDS011;2592;48.140;7.614;2023-08-17T08:32:21;5.70;;;4.03;;
5147;SDS011;2592;48.140;7.614;2023-08-17T08:34:48;4.67;;;3.77;;
5147;SDS011;2592;48.140;7.614;2023-08-17T08:37:14;4.80;;;3.77;;
5147;SDS011;2592;48.140;7.614;2023-08-17T08:39:50;5.40;;;3.10;;
5147;SDS011;2592;48.140;7.614;2023-08-17T08:42:17;4.10;;;3.43;;
5147;SDS011;2592;48.140;7.614;2023-08-17T08:44:44;6.93;;;4.10;;
5147;SDS011;2592;48.140;7.614;2023-08-17T08:47:10;6.50;;;4.10;;
5147;SDS011;2592;48.140;7.614;2023-08-17T08:49:39;10.10;;;4.83;;
5147;SDS011;2592;48.140;7.614;2023-08-17T08:52:06;8.50;;;4.13;;
5147;SDS011;2592;48.140;7.614;2023-08-17T08:54:33;5.67;;;3.83;;
5147;SDS011;2592;48.140;7.614;2023-08-17T08:57:01;7.40;;;3.60;;
5147;SDS011;2592;48.140;7.614;2023-08-17T08:59:29;7.20;;;3.80;;
5147;SDS011;2592;48.140;7.614;2023-08-17T09:01:57;4.63;;;3.77;;
5147;SDS011;2592;48.140;7.614;2023-08-17T09:04:24;4.33;;;2.87;;
5147;SDS011;2592;48.140;7.614;2023-08-17T09:06:52;5.37;;;3.20;;
5147;SDS011;2592;48.140;7.614;2023-08-17T09:09:19;7.00;;;3.60;;
5147;SDS011;2592;48.140;7.614;2023-08-17T09:11:46;5.97;;;3.30;;
5147;SDS011;2592;48.140;7.614;2023-08-17T09:14:12;5.80;;;2.97;;
5147;SDS011;2592;48.140;7.614;2023-08-17T09:16:38;5.87;;;3.43;;
5147;SDS011;2592;48.140;7.614;2023-08-17T09:19:05;5.83;;;3.30;;
5147;SDS011;2592;48.140;7.614;2023-08-17T09:21:32;3.77;;;3.00;;
5147;SDS011;2592;48.140;7.614;2023-08-17T09:24:00;4.50;;;3.53;;
5147;SDS011;2592;48.140;7.614;2023-08-17T09:26:30;3.80;;;2.93;;
5147;SDS011;2592;48.140;7.614;2023-08-17T09:28:56;5.10;;;2.90;;
5147;SDS011;2592;48.140;7.614;2023-08-17T09:31:24;12.90;;;3.40;;
5147;SDS011;2592;48.140;7.614;2023-08-17T09:33:50;7.53;;;3.30;;
5147;SDS011;2592;48.140;7.614;2023-08-17T09:36:19;6.00;;;3.53;;
5147;SDS011;2592;48.140;7.614;2023-08-17T09:38:47;5.10;;;2.80;;
5147;SDS011;2592;48.140;7.614;2023-08-17T09:41:15;6.03;;;2.67;;
5147;SDS011;2592;48.140;7.614;2023-08-17T09:43:41;6.63;;;3.53;;
5147;SDS011;2592;48.140;7.614;2023-08-17T09:46:08;6.27;;;3.67;;
5147;SDS011;2592;48.140;7.614;2023-08-17T09:48:35;8.13;;;3.27;;
5147;SDS011;2592;48.140;7.614;2023-08-17T09:51:02;3.80;;;2.87;;
5147;SDS011;2592;48.140;7.614;2023-08-17T09:53:33;4.90;;;3.57;;
5147;SDS011;2592;48.140;7.614;2023-08-17T09:56:00;5.23;;;3.30;;
5147;SDS011;2592;48.140;7.614;2023-08-17T09:58:28;4.50;;;3.07;;
5147;SDS011;2592;48.140;7.614;2023-08-17T10:00:55;5.30;;;3.80;;
5147;SDS011;2592;48.140;7.614;2023-08-17T10:03:22;6.00;;;4.17;;
5147;SDS011;2592;48.140;7.614;2023-08-17T10:05:52;3.90;;;3.17;;
5147;SDS011;2592;48.140;7.614;2023-08-17T10:08:21;9.07;;;4.30;;
5147;SDS011;2592;48.140;7.614;2023-08-17T10:10:49;7.13;;;3.83;;
5147;SDS011;2592;48.140;7.614;2023-08-17T10:13:16;7.97;;;3.87;;
5147;SDS011;2592;48.140;7.614;2023-08-17T10:15:48;8.90;;;4.57;;
5147;SDS011;2592;48.140;7.614;2023-08-17T10:18:20;15.30;;;4.97;;
5147;SDS011;2592;48.140;7.614;2023-08-17T10:20:49;7.10;;;4.87;;
5147;SDS011;2592;48.140;7.614;2023-08-17T10:23:18;4.70;;;3.83;;
5147;SDS011;2592;48.140;7.614;2023-08-17T10:25:45;6.23;;;4.90;;
5147;SDS011;2592;48.140;7.614;2023-08-17T10:28:13;5.73;;;4.20;;
5147;SDS011;2592;48.140;7.614;2023-08-17T10:30:40;14.60;;;5.47;;
5147;SDS011;2592;48.140;7.614;2023-08-17T10:33:08;7.10;;;5.20;;
5147;SDS011;2592;48.140;7.614;2023-08-17T10:35:36;7.13;;;5.17;;
5147;SDS011;2592;48.140;7.614;2023-08-17T10:38:02;9.00;;;4.60;;
5147;SDS011;2592;48.140;7.614;2023-08-17T10:40:34;8.57;;;5.03;;
5147;SDS011;2592;48.140;7.614;2023-08-17T10:43:01;12.07;;;4.77;;
5147;SDS011;2592;48.140;7.614;2023-08-17T10:45:28;7.90;;;5.40;;
5147;SDS011;2592;48.140;7.614;2023-08-17T10:50:44;8.53;;;5.00;;
5147;SDS011;2592;48.140;7.614;2023-08-17T10:53:24;11.57;;;5.50;;
5147;SDS011;2592;48.140;7.614;2023-08-17T10:55:50;10.43;;;4.93;;
5147;SDS011;2592;48.140;7.614;2023-08-17T10:58:23;7.60;;;4.50;;
5147;SDS011;2592;48.140;7.614;2023-08-17T11:00:53;4.83;;;3.33;;
5147;SDS011;2592;48.140;7.614;2023-08-17T11:03:20;5.50;;;4.30;;
5147;SDS011;2592;48.140;7.614;2023-08-17T11:05:50;6.80;;;3.83;;
5147;SDS011;2592;48.140;7.614;2023-08-17T11:08:22;5.13;;;4.30;;
5147;SDS011;2592;48.140;7.614;2023-08-17T11:10:56;4.60;;;3.90;;
5147;SDS011;2592;48.140;7.614;2023-08-17T11:13:23;9.00;;;4.30;;
5147;SDS011;2592;48.140;7.614;2023-08-17T11:15:49;4.93;;;3.50;;
5147;SDS011;2592;48.140;7.614;2023-08-17T11:18:16;5.17;;;3.80;;
5147;SDS011;2592;48.140;7.614;2023-08-17T11:20:42;6.40;;;3.07;;
5147;SDS011;2592;48.140;7.614;2023-08-17T11:23:10;6.43;;;3.87;;
5147;SDS011;2592;48.140;7.614;2023-08-17T11:25:37;7.70;;;3.57;;
5147;SDS011;2592;48.140;7.614;2023-08-17T11:28:06;9.60;;;4.30;;
5147;SDS011;2592;48.140;7.614;2023-08-17T11:30:33;5.73;;;3.87;;
5147;SDS011;2592;48.140;7.614;2023-08-17T11:33:01;7.60;;;4.57;;
5147;SDS011;2592;48.140;7.614;2023-08-17T11:35:27;5.77;;;3.40;;
5147;SDS011;2592;48.140;7.614;2023-08-17T11:37:53;5.17;;;3.40;;
5147;SDS011;2592;48.140;7.614;2023-08-17T11:40:21;12.47;;;3.00;;
5147;SDS011;2592;48.140;7.614;2023-08-17T11:42:48;6.50;;;3.87;;
5147;SDS011;2592;48.140;7.614;2023-08-17T11:45:15;6.00;;;3.77;;
5147;SDS011;2592;48.140;7.614;2023-08-17T11:47:41;5.07;;;3.90;;
5147;SDS011;2592;48.140;7.614;2023-08-17T11:50:09;11.50;;;4.17;;
5147;SDS011;2592;48.140;7.614;2023-08-17T11:52:36;5.80;;;3.43;;
5147;SDS011;2592;48.140;7.614;2023-08-17T11:55:02;12.80;;;5.57;;
5147;SDS011;2592;48.140;7.614;2023-08-17T11:57:32;18.67;;;14.70;;
5147;SDS011;2592;48.140;7.614;2023-08-17T11:59:59;9.40;;;4.73;;
5147;SDS011;2592;48.140;7.614;2023-08-17T12:02:25;7.60;;;4.40;;
5147;SDS011;2592;48.140;7.614;2023-08-17T12:04:53;6.03;;;3.93;;
5147;SDS011;2592;48.140;7.614;2023-08-17T12:07:19;5.20;;;3.53;;
5147;SDS011;2592;48.140;7.614;2023-08-17T12:09:47;8.20;;;3.67;;
5147;SDS011;2592;48.140;7.614;2023-08-17T12:12:16;6.17;;;4.00;;
5147;SDS011;2592;48.140;7.614;2023-08-17T12:14:45;20.60;;;7.00;;
5147;SDS011;2592;48.140;7.614;2023-08-17T12:17:13;10.93;;;7.70;;
5147;SDS011;2592;48.140;7.614;2023-08-17T12:19:40;6.70;;;4.73;;
5147;SDS011;2592;48.140;7.614;2023-08-17T12:22:06;6.50;;;4.07;;
5147;SDS011;2592;48.140;7.614;2023-08-17T12:24:33;9.73;;;3.87;;
5147;SDS011;2592;48.140;7.614;2023-08-17T12:27:00;12.50;;;8.20;;
5147;SDS011;2592;48.140;7.614;2023-08-17T12:29:27;11.50;;;8.30;;
5147;SDS011;2592;48.140;7.614;2023-08-17T12:31:55;27.60;;;16.70;;
5147;SDS011;2592;48.140;7.614;2023-08-17T12:34:22;8.00;;;6.13;;
5147;SDS011;2592;48.140;7.614;2023-08-17T12:36:49;6.03;;;4.93;;
5147;SDS011;2592;48.140;7.614;2023-08-17T12:39:15;13.47;;;7.43;;
5147;SDS011;2592;48.140;7.614;2023-08-17T12:41:42;6.73;;;5.47;;
5147;SDS011;2592;48.140;7.614;2023-08-17T12:44:09;6.23;;;4.80;;
5147;SDS011;2592;48.140;7.614;2023-08-17T12:46:37;8.07;;;4.77;;
5147;SDS011;2592;48.140;7.614;2023-08-17T12:49:05;8.93;;;4.63;;
5147;SDS011;2592;48.140;7.614;2023-08-17T12:51:31;6.93;;;4.57;;
5147;SDS011;2592;48.140;7.614;2023-08-17T12:53:58;5.40;;;4.57;;
5147;SDS011;2592;48.140;7.614;2023-08-17T12:56:24;6.67;;;4.33;;
5147;SDS011;2592;48.140;7.614;2023-08-17T12:58:51;5.63;;;4.30;;
5147;SDS011;2592;48.140;7.614;2023-08-17T13:01:17;4.70;;;4.03;;
5147;SDS011;2592;48.140;7.614;2023-08-17T13:03:43;5.40;;;3.90;;
5147;SDS011;2592;48.140;7.614;2023-08-17T13:06:11;6.80;;;3.77;;
5147;SDS011;2592;48.140;7.614;2023-08-17T13:08:38;6.10;;;4.00;;
5147;SDS011;2592;48.140;7.614;2023-08-17T13:11:04;5.93;;;3.87;;
5147;SDS011;2592;48.140;7.614;2023-08-17T13:13:31;5.37;;;4.03;;
5147;SDS011;2592;48.140;7.614;2023-08-17T13:15:57;6.53;;;3.87;;
5147;SDS011;2592;48.140;7.614;2023-08-17T13:18:23;8.90;;;7.13;;
5147;SDS011;2592;48.140;7.614;2023-08-17T13:20:50;24.80;;;18.20;;
5147;SDS011;2592;48.140;7.614;2023-08-17T13:23:18;33.53;;;18.40;;
5147;SDS011;2592;48.140;7.614;2023-08-17T13:25:44;17.93;;;10.53;;
5147;SDS011;2592;48.140;7.614;2023-08-17T13:28:11;7.80;;;6.17;;
5147;SDS011;2592;48.140;7.614;2023-08-17T13:30:37;14.83;;;7.07;;
5147;SDS011;2592;48.140;7.614;2023-08-17T13:33:04;13.10;;;4.67;;
5147;SDS011;2592;48.140;7.614;2023-08-17T13:35:31;9.77;;;4.23;;
5147;SDS011;2592;48.140;7.614;2023-08-17T13:37:57;4.43;;;3.40;;
5147;SDS011;2592;48.140;7.614;2023-08-17T13:40:25;18.13;;;10.63;;
5147;SDS011;2592;48.140;7.614;2023-08-17T13:42:52;15.13;;;6.80;;
5147;SDS011;2592;48.140;7.614;2023-08-17T13:45:18;8.00;;;6.37;;
5147;SDS011;2592;48.140;7.614;2023-08-17T13:47:44;21.20;;;11.77;;
5147;SDS011;2592;48.140;7.614;2023-08-17T13:50:11;10.40;;;8.20;;
5147;SDS011;2592;48.140;7.614;2023-08-17T13:52:37;11.93;;;4.47;;
5147;SDS011;2592;48.140;7.614;2023-08-17T13:55:04;8.17;;;4.50;;
5147;SDS011;2592;48.140;7.614;2023-08-17T13:57:32;5.97;;;5.37;;
5147;SDS011;2592;48.140;7.614;2023-08-17T13:59:58;7.40;;;5.73;;
5147;SDS011;2592;48.140;7.614;2023-08-17T14:02:25;7.03;;;4.73;;
5147;SDS011;2592;48.140;7.614;2023-08-17T14:04:51;10.47;;;4.13;;
5147;SDS011;2592;48.140;7.614;2023-08-17T14:07:17;7.80;;;4.30;;
5147;SDS011;2592;48.140;7.614;2023-08-17T14:09:44;10.40;;;4.50;;
5147;SDS011;2592;48.140;7.614;2023-08-17T14:12:10;13.40;;;8.10;;
5147;SDS011;2592;48.140;7.614;2023-08-17T14:14:38;7.47;;;5.40;;
5147;SDS011;2592;48.140;7.614;2023-08-17T14:17:04;12.27;;;8.13;;
5147;SDS011;2592;48.140;7.614;2023-08-17T14:19:31;13.83;;;5.20;;
5147;SDS011;2592;48.140;7.614;2023-08-17T14:21:57;5.37;;;3.90;;
5147;SDS011;2592;48.140;7.614;2023-08-17T14:24:25;6.00;;;4.47;;
5147;SDS011;2592;48.140;7.614;2023-08-17T14:26:52;6.23;;;4.20;;
5147;SDS011;2592;48.140;7.614;2023-08-17T14:29:18;6.50;;;3.90;;
5147;SDS011;2592;48.140;7.614;2023-08-17T14:31:46;9.33;;;4.33;;
5147;SDS011;2592;48.140;7.614;2023-08-17T14:34:13;3.93;;;3.33;;
5147;SDS011;2592;48.140;7.614;2023-08-17T14:36:40;15.90;;;4.07;;
5147;SDS011;2592;48.140;7.614;2023-08-17T14:39:06;7.50;;;3.90;;
5147;SDS011;2592;48.140;7.614;2023-08-17T14:41:33;6.50;;;4.33;;
5147;SDS011;2592;48.140;7.614;2023-08-17T14:44:00;5.70;;;4.00;;
5147;SDS011;2592;48.140;7.614;2023-08-17T14:46:26;15.40;;;3.97;;
5147;SDS011;2592;48.140;7.614;2023-08-17T14:48:54;6.67;;;3.80;;
5147;SDS011;2592;48.140;7.614;2023-08-17T14:51:20;7.33;;;5.90;;
5147;SDS011;2592;48.140;7.614;2023-08-17T14:53:47;8.53;;;5.30;;
5147;SDS011;2592;48.140;7.614;2023-08-17T14:56:14;8.70;;;4.43;;
5147;SDS011;2592;48.140;7.614;2023-08-17T14:58:40;12.50;;;4.00;;
5147;SDS011;2592;48.140;7.614;2023-08-17T15:01:06;14.30;;;5.00;;
5147;SDS011;2592;48.140;7.614;2023-08-17T15:03:33;12.57;;;8.60;;
5147;SDS011;2592;48.140;7.614;2023-08-17T15:06:01;10.37;;;6.57;;
5147;SDS011;2592;48.140;7.614;2023-08-17T15:08:27;6.33;;;4.37;;
5147;SDS011;2592;48.140;7.614;2023-08-17T15:10:53;8.80;;;6.20;;
5147;SDS011;2592;48.140;7.614;2023-08-17T15:13:20;7.67;;;5.40;;